sensor_id;sensor_type;location;lat;lon;timestamp;pressure;altitude;pressure_sealevel;temperature;humidity
59315;BME280;46521;50.160;20.802;2023-12-20T00:00:31;99174.54;;;2.47;70.25
59315;BME280;46521;50.160;20.802;2023-12-20T00:10:54;99182.38;;;2.47;70.15
59315;BME280;46521;50.160;20.802;2023-12-20T00:20:55;99175.70;;;2.54;70.55
59315;BME280;46521;50.160;20.802;2023-12-20T00:30:57;99170.22;;;2.57;71.05
59315;BME280;46521;50.160;20.802;2023-12-20T00:40:59;99157.59;;;2.62;70.41
59315;BME280;46521;50.160;20.802;2023-12-20T00:51:00;99155.67;;;2.64;70.53
59315;BME280;46521;50.160;20.802;2023-12-20T01:01:02;99132.56;;;2.60;70.51
59315;BME280;46521;50.160;20.802;2023-12-20T01:11:05;99121.56;;;2.56;71.07
59315;BME280;46521;50.160;20.802;2023-12-20T01:21:07;99116.09;;;2.59;71.04
59315;BME280;46521;50.160;20.802;2023-12-20T01:31:08;99113.09;;;2.64;70.84
59315;BME280;46521;50.160;20.802;2023-12-20T01:41:10;99105.42;;;2.72;70.53
59315;BME280;46521;50.160;20.802;2023-12-20T01:51:12;99087.01;;;2.74;71.02
59315;BME280;46521;50.160;20.802;2023-12-20T02:01:13;99072.55;;;2.69;70.69
59315;BME280;46521;50.160;20.802;2023-12-20T02:11:15;99050.69;;;2.61;70.94
59315;BME280;46521;50.160;20.802;2023-12-20T02:21:17;99040.64;;;2.56;70.83
59315;BME280;46521;50.160;20.802;2023-12-20T02:31:21;99005.83;;;2.46;70.74
59315;BME280;46521;50.160;20.802;2023-12-20T02:41:23;99004.86;;;2.37;70.79
59315;BME280;46521;50.160;20.802;2023-12-20T02:51:25;99010.56;;;2.21;70.75
59315;BME280;46521;50.160;20.802;2023-12-20T03:01:27;99009.67;;;2.11;70.54
59315;BME280;46521;50.160;20.802;2023-12-20T03:11:29;99004.98;;;2.05;70.57
59315;BME280;46521;50.160;20.802;2023-12-20T03:21:30;99000.45;;;2.07;70.83
59315;BME280;46521;50.160;20.802;2023-12-20T03:31:32;98990.53;;;2.01;70.93
59315;BME280;46521;50.160;20.802;2023-12-20T03:41:33;98991.08;;;1.94;71.16
59315;BME280;46521;50.160;20.802;2023-12-20T03:51:35;99002.33;;;1.95;70.46
59315;BME280;46521;50.160;20.802;2023-12-20T04:01:36;99011.68;;;1.97;70.21
59315;BME280;46521;50.160;20.802;2023-12-20T04:11:38;99016.90;;;1.97;70.21
59315;BME280;46521;50.160;20.802;2023-12-20T04:21:39;99002.63;;;2.02;70.74
59315;BME280;46521;50.160;20.802;2023-12-20T04:31:41;99005.66;;;2.07;70.40
59315;BME280;46521;50.160;20.802;2023-12-20T04:41:43;99005.14;;;2.13;70.68
59315;BME280;46521;50.160;20.802;2023-12-20T04:51:44;98987.47;;;2.16;70.27
59315;BME280;46521;50.160;20.802;2023-12-20T05:01:46;98979.06;;;2.13;70.63
59315;BME280;46521;50.160;20.802;2023-12-20T05:11:47;98981.24;;;2.08;71.02
59315;BME280;46521;50.160;20.802;2023-12-20T05:21:49;98993.34;;;2.09;70.31
59315;BME280;46521;50.160;20.802;2023-12-20T05:31:50;98998.55;;;2.09;71.01
59315;BME280;46521;50.160;20.802;2023-12-20T05:41:52;99007.20;;;2.09;70.75
59315;BME280;46521;50.160;20.802;2023-12-20T05:51:53;98989.50;;;2.13;70.38
59315;BME280;46521;50.160;20.802;2023-12-20T06:01:55;98993.38;;;2.19;70.45
59315;BME280;46521;50.160;20.802;2023-12-20T06:11:56;98986.23;;;2.21;71.04
59315;BME280;46521;50.160;20.802;2023-12-20T06:21:58;98985.98;;;2.24;70.80
59315;BME280;46521;50.160;20.802;2023-12-20T06:31:59;98986.56;;;2.27;70.85
59315;BME280;46521;50.160;20.802;2023-12-20T06:42:01;98983.81;;;2.29;70.91
59315;BME280;46521;50.160;20.802;2023-12-20T06:52:03;98972.43;;;2.40;71.46
59315;BME280;46521;50.160;20.802;2023-12-20T07:02:04;98976.44;;;2.44;71.44
59315;BME280;46521;50.160;20.802;2023-12-20T07:12:06;98982.28;;;2.67;73.11
59315;BME280;46521;50.160;20.802;2023-12-20T07:22:08;98974.77;;;3.22;73.26
59315;BME280;46521;50.160;20.802;2023-12-20T07:32:09;98973.80;;;3.53;74.23
59315;BME280;46521;50.160;20.802;2023-12-20T07:42:11;98979.13;;;3.71;74.06
59315;BME280;46521;50.160;20.802;2023-12-20T07:52:12;98985.88;;;3.73;74.55
59315;BME280;46521;50.160;20.802;2023-12-20T08:02:14;98987.79;;;3.71;75.46
59315;BME280;46521;50.160;20.802;2023-12-20T08:12:16;98995.10;;;3.68;75.29
59315;BME280;46521;50.160;20.802;2023-12-20T08:22:18;98991.67;;;3.67;75.56
59315;BME280;46521;50.160;20.802;2023-12-20T08:32:19;98990.29;;;3.63;76.06
59315;BME280;46521;50.160;20.802;2023-12-20T08:42:21;98989.20;;;3.66;76.17
59315;BME280;46521;50.160;20.802;2023-12-20T08:52:22;98985.88;;;3.73;76.63
59315;BME280;46521;50.160;20.802;2023-12-20T09:02:24;98988.89;;;3.78;76.96
59315;BME280;46521;50.160;20.802;2023-12-20T09:12:26;98991.65;;;3.77;77.17
59315;BME280;46521;50.160;20.802;2023-12-20T09:22:28;98989.98;;;3.76;77.23
59315;BME280;46521;50.160;20.802;2023-12-20T09:32:30;98978.03;;;3.73;77.80
59315;BME280;46521;50.160;20.802;2023-12-20T09:52:51;98983.98;;;3.56;78.09
59315;BME280;46521;50.160;20.802;2023-12-20T10:02:58;98968.56;;;3.43;78.29
59315;BME280;46521;50.160;20.802;2023-12-20T10:13:07;98969.12;;;3.37;78.71
59315;BME280;46521;50.160;20.802;2023-12-20T10:23:10;98959.78;;;3.34;78.99
59315;BME280;46521;50.160;20.802;2023-12-20T10:33:12;98952.89;;;3.33;79.35
59315;BME280;46521;50.160;20.802;2023-12-20T10:43:14;98943.12;;;3.35;79.61
59315;BME280;46521;50.160;20.802;2023-12-20T10:53:16;98937.21;;;3.33;80.22
59315;BME280;46521;50.160;20.802;2023-12-20T11:03:18;98942.44;;;3.33;80.08
59315;BME280;46521;50.160;20.802;2023-12-20T11:13:25;98940.78;;;3.32;80.29
59315;BME280;46521;50.160;20.802;2023-12-20T11:23:29;98926.09;;;3.31;80.89
59315;BME280;46521;50.160;20.802;2023-12-20T11:33:36;98935.02;;;3.29;80.49
59315;BME280;46521;50.160;20.802;2023-12-20T11:43:39;98939.43;;;3.28;80.99
59315;BME280;46521;50.160;20.802;2023-12-20T11:53:41;98923.08;;;3.26;80.92
59315;BME280;46521;50.160;20.802;2023-12-20T12:03:45;98917.14;;;3.24;81.11
59315;BME280;46521;50.160;20.802;2023-12-20T12:13:47;98910.82;;;3.27;81.72
59315;BME280;46521;50.160;20.802;2023-12-20T12:23:49;98911.64;;;3.27;81.57
59315;BME280;46521;50.160;20.802;2023-12-20T12:33:50;98916.86;;;3.27;81.76
59315;BME280;46521;50.160;20.802;2023-12-20T12:43:52;98886.88;;;3.31;81.90
59315;BME280;46521;50.160;20.802;2023-12-20T12:53:53;98885.20;;;3.40;82.03
59315;BME280;46521;50.160;20.802;2023-12-20T13:03:55;98879.27;;;3.48;82.11
59315;BME280;46521;50.160;20.802;2023-12-20T13:13:56;98891.38;;;3.49;82.54
59315;BME280;46521;50.160;20.802;2023-12-20T13:23:58;98894.81;;;3.49;82.45
59315;BME280;46521;50.160;20.802;2023-12-20T13:34:00;98899.89;;;3.51;82.65
59315;BME280;46521;50.160;20.802;2023-12-20T13:44:01;98905.55;;;3.46;82.93
59315;BME280;46521;50.160;20.802;2023-12-20T13:54:04;98919.60;;;3.45;82.60
59315;BME280;46521;50.160;20.802;2023-12-20T14:04:06;98915.47;;;3.42;82.38
59315;BME280;46521;50.160;20.802;2023-12-20T14:14:08;98931.97;;;3.43;82.36
59315;BME280;46521;50.160;20.802;2023-12-20T14:24:09;98926.73;;;3.43;82.85
59315;BME280;46521;50.160;20.802;2023-12-20T14:34:11;98919.03;;;3.41;82.13
59315;BME280;46521;50.160;20.802;2023-12-20T14:44:12;98902.82;;;3.38;82.26
59315;BME280;46521;50.160;20.802;2023-12-20T14:54:14;98912.88;;;3.33;82.36
59315;BME280;46521;50.160;20.802;2023-12-20T15:04:15;98917.98;;;3.24;82.62
59315;BME280;46521;50.160;20.802;2023-12-20T15:14:17;98917.30;;;3.13;82.44
59315;BME280;46521;50.160;20.802;2023-12-20T15:24:20;98919.07;;;3.02;82.63
59315;BME280;46521;50.160;20.802;2023-12-20T15:34:29;98915.52;;;2.84;82.03
59315;BME280;46521;50.160;20.802;2023-12-20T15:44:31;98922.77;;;2.70;82.45
59315;BME280;46521;50.160;20.802;2023-12-20T15:54:33;98924.83;;;2.57;82.14
59315;BME280;46521;50.160;20.802;2023-12-20T16:04:34;98928.39;;;2.56;82.19
59315;BME280;46521;50.160;20.802;2023-12-20T16:14:37;98922.91;;;2.59;82.74
59315;BME280;46521;50.160;20.802;2023-12-20T16:24:39;98918.36;;;2.61;82.45
59315;BME280;46521;50.160;20.802;2023-12-20T16:34:40;98911.06;;;2.55;82.22
59315;BME280;46521;50.160;20.802;2023-12-20T16:44:42;98906.12;;;2.52;82.05
59315;BME280;46521;50.160;20.802;2023-12-20T16:54:44;98906.66;;;2.46;82.76
59315;BME280;46521;50.160;20.802;2023-12-20T17:04:45;98918.20;;;2.43;82.38
59315;BME280;46521;50.160;20.802;2023-12-20T17:14:47;98914.33;;;2.38;82.50
59315;BME280;46521;50.160;20.802;2023-12-20T17:24:48;98907.59;;;2.35;82.88
59315;BME280;46521;50.160;20.802;2023-12-20T17:34:50;98907.90;;;2.42;82.65
59315;BME280;46521;50.160;20.802;2023-12-20T17:44:51;98892.92;;;2.44;82.94
59315;BME280;46521;50.160;20.802;2023-12-20T17:54:53;98892.92;;;2.44;82.61
59315;BME280;46521;50.160;20.802;2023-12-20T18:04:54;98874.66;;;2.44;82.64
59315;BME280;46521;50.160;20.802;2023-12-20T18:14:56;98873.13;;;2.41;82.19
59315;BME280;46521;50.160;20.802;2023-12-20T18:24:58;98883.28;;;2.34;82.77
59315;BME280;46521;50.160;20.802;2023-12-20T18:35:00;98893.72;;;2.34;82.26
59315;BME280;46521;50.160;20.802;2023-12-20T18:45:02;98896.87;;;2.28;81.94
59315;BME280;46521;50.160;20.802;2023-12-20T18:55:05;98912.52;;;2.28;82.37
59315;BME280;46521;50.160;20.802;2023-12-20T19:05:06;98899.21;;;2.31;82.34
59315;BME280;46521;50.160;20.802;2023-12-20T19:15:08;98902.95;;;2.39;82.31
59315;BME280;46521;50.160;20.802;2023-12-20T19:25:11;98882.63;;;2.52;82.48
59315;BME280;46521;50.160;20.802;2023-12-20T19:35:14;98887.44;;;2.57;81.67
59315;BME280;46521;50.160;20.802;2023-12-20T19:45:15;98866.96;;;2.52;81.10
59315;BME280;46521;50.160;20.802;2023-12-20T19:55:17;98864.89;;;2.46;81.33
59315;BME280;46521;50.160;20.802;2023-12-20T20:05:19;98857.73;;;2.38;80.73
59315;BME280;46521;50.160;20.802;2023-12-20T20:15:20;98838.39;;;2.41;81.47
59315;BME280;46521;50.160;20.802;2023-12-20T20:25:22;98860.80;;;2.53;81.22
59315;BME280;46521;50.160;20.802;2023-12-20T20:35:23;98860.92;;;2.61;80.46
59315;BME280;46521;50.160;20.802;2023-12-20T20:45:25;98850.91;;;2.76;80.55
59315;BME280;46521;50.160;20.802;2023-12-20T20:55:27;98831.67;;;2.87;80.06
59315;BME280;46521;50.160;20.802;2023-12-20T21:05:28;98841.01;;;2.80;80.04
59315;BME280;46521;50.160;20.802;2023-12-20T21:15:30;98836.61;;;2.70;79.62
59315;BME280;46521;50.160;20.802;2023-12-20T21:25:31;98842.66;;;2.61;79.49
59315;BME280;46521;50.160;20.802;2023-12-20T21:35:33;98844.05;;;2.56;79.92
59315;BME280;46521;50.160;20.802;2023-12-20T21:45:36;98843.74;;;2.49;79.44
59315;BME280;46521;50.160;20.802;2023-12-20T21:55:40;98849.95;;;2.48;79.65
59315;BME280;46521;50.160;20.802;2023-12-20T22:05:43;98857.50;;;2.51;79.69
59315;BME280;46521;50.160;20.802;2023-12-20T22:15:45;98861.61;;;2.53;79.24
59315;BME280;46521;50.160;20.802;2023-12-20T22:25:46;98855.30;;;2.46;79.23
59315;BME280;46521;50.160;20.802;2023-12-20T22:35:48;98844.28;;;2.43;79.28
59315;BME280;46521;50.160;20.802;2023-12-20T22:45:49;98841.00;;;2.41;79.09
59315;BME280;46521;50.160;20.802;2023-12-20T22:55:51;98829.34;;;2.45;78.81
59315;BME280;46521;50.160;20.802;2023-12-20T23:05:52;98834.97;;;2.50;79.02
59315;BME280;46521;50.160;20.802;2023-12-20T23:15:54;98815.19;;;2.57;79.05
59315;BME280;46521;50.160;20.802;2023-12-20T23:25:55;98808.86;;;2.60;79.17
59315;BME280;46521;50.160;20.802;2023-12-20T23:35:57;98814.22;;;2.58;79.61
59315;BME280;46521;50.160;20.802;2023-12-20T23:45:58;98808.86;;;2.60;79.16
59315;BME280;46521;50.160;20.802;2023-12-20T23:56:00;98805.16;;;2.62;79.06
